sensor_id;sensor_type;location;lat;lon;timestamp;P1;durP1;ratioP1;P2;durP2;ratioP2
54805;SDS011;62866;55.776;37.496;2022-10-13T00:01:46;3.05;;;1.50;;
54805;SDS011;62866;55.776;37.496;2022-10-13T00:04:12;2.83;;;1.73;;
54805;SDS011;62866;55.776;37.496;2022-10-13T00:06:37;3.05;;;1.90;;
54805;SDS011;62866;55.776;37.496;2022-10-13T00:09:03;5.00;;;1.80;;
54805;SDS011;62866;55.776;37.496;2022-10-13T00:11:29;2.83;;;1.70;;
54805;SDS011;62866;55.776;37.496;2022-10-13T00:13:58;3.88;;;1.95;;
54805;SDS011;62866;55.776;37.496;2022-10-13T00:16:25;4.03;;;1.20;;
54805;SDS011;62866;55.776;37.496;2022-10-13T00:18:53;3.88;;;1.50;;
54805;SDS011;62866;55.776;37.496;2022-10-13T00:21:20;3.88;;;1.55;;
54805;SDS011;62866;55.776;37.496;2022-10-13T00:23:47;2.65;;;1.52;;
54805;SDS011;62866;55.776;37.496;2022-10-13T00:26:14;4.00;;;1.75;;
54805;SDS011;62866;55.776;37.496;2022-10-13T00:28:41;2.45;;;1.15;;
54805;SDS011;62866;55.776;37.496;2022-10-13T00:31:13;4.28;;;2.00;;
54805;SDS011;62866;55.776;37.496;2022-10-13T00:33:39;2.67;;;1.33;;
54805;SDS011;62866;55.776;37.496;2022-10-13T00:36:05;3.22;;;1.80;;
54805;SDS011;62866;55.776;37.496;2022-10-13T00:38:30;2.70;;;1.55;;
54805;SDS011;62866;55.776;37.496;2022-10-13T00:40:56;2.33;;;1.50;;
54805;SDS011;62866;55.776;37.496;2022-10-13T00:43:26;5.72;;;1.85;;
54805;SDS011;62866;55.776;37.496;2022-10-13T00:46:11;3.60;;;1.85;;
54805;SDS011;62866;55.776;37.496;2022-10-13T00:48:38;4.32;;;1.67;;
54805;SDS011;62866;55.776;37.496;2022-10-13T00:51:04;3.55;;;1.70;;
54805;SDS011;62866;55.776;37.496;2022-10-13T00:53:31;5.47;;;1.60;;
54805;SDS011;62866;55.776;37.496;2022-10-13T00:56:00;4.80;;;1.58;;
54805;SDS011;62866;55.776;37.496;2022-10-13T00:58:26;2.28;;;1.50;;
54805;SDS011;62866;55.776;37.496;2022-10-13T01:00:56;4.22;;;1.73;;
54805;SDS011;62866;55.776;37.496;2022-10-13T01:03:21;4.45;;;2.03;;
54805;SDS011;62866;55.776;37.496;2022-10-13T01:05:48;3.13;;;1.48;;
54805;SDS011;62866;55.776;37.496;2022-10-13T01:08:15;5.20;;;1.90;;
54805;SDS011;62866;55.776;37.496;2022-10-13T01:13:36;2.45;;;1.67;;
54805;SDS011;62866;55.776;37.496;2022-10-13T01:16:13;4.25;;;1.80;;
54805;SDS011;62866;55.776;37.496;2022-10-13T01:27:37;4.10;;;1.85;;
54805;SDS011;62866;55.776;37.496;2022-10-13T01:30:29;3.55;;;1.75;;
54805;SDS011;62866;55.776;37.496;2022-10-13T01:38:22;3.58;;;1.85;;
54805;SDS011;62866;55.776;37.496;2022-10-13T01:43:29;3.85;;;2.00;;
54805;SDS011;62866;55.776;37.496;2022-10-13T01:48:47;4.57;;;1.83;;
54805;SDS011;62866;55.776;37.496;2022-10-13T01:51:17;4.50;;;1.98;;
54805;SDS011;62866;55.776;37.496;2022-10-13T01:53:45;3.45;;;1.77;;
54805;SDS011;62866;55.776;37.496;2022-10-13T01:56:12;4.13;;;1.85;;
54805;SDS011;62866;55.776;37.496;2022-10-13T01:58:38;5.03;;;2.20;;
54805;SDS011;62866;55.776;37.496;2022-10-13T02:09:42;2.78;;;1.80;;
54805;SDS011;62866;55.776;37.496;2022-10-13T02:11:58;3.67;;;1.90;;
54805;SDS011;62866;55.776;37.496;2022-10-13T02:14:39;5.00;;;1.80;;
54805;SDS011;62866;55.776;37.496;2022-10-13T02:17:06;4.03;;;1.77;;
54805;SDS011;62866;55.776;37.496;2022-10-13T02:19:32;3.47;;;1.85;;
54805;SDS011;62866;55.776;37.496;2022-10-13T02:22:00;7.20;;;2.40;;
54805;SDS011;62866;55.776;37.496;2022-10-13T02:24:26;4.13;;;2.17;;
54805;SDS011;62866;55.776;37.496;2022-10-13T02:26:52;6.57;;;2.28;;
54805;SDS011;62866;55.776;37.496;2022-10-13T02:29:18;4.65;;;2.58;;
54805;SDS011;62866;55.776;37.496;2022-10-13T02:31:44;5.57;;;2.40;;
54805;SDS011;62866;55.776;37.496;2022-10-13T02:34:12;3.95;;;2.50;;
54805;SDS011;62866;55.776;37.496;2022-10-13T02:36:38;5.38;;;2.58;;
54805;SDS011;62866;55.776;37.496;2022-10-13T02:39:05;7.72;;;2.47;;
54805;SDS011;62866;55.776;37.496;2022-10-13T02:41:31;4.90;;;1.73;;
54805;SDS011;62866;55.776;37.496;2022-10-13T02:43:57;5.38;;;2.67;;
54805;SDS011;62866;55.776;37.496;2022-10-13T02:46:23;5.32;;;2.65;;
54805;SDS011;62866;55.776;37.496;2022-10-13T02:48:48;3.95;;;2.10;;
54805;SDS011;62866;55.776;37.496;2022-10-13T02:51:14;6.13;;;2.67;;
54805;SDS011;62866;55.776;37.496;2022-10-13T02:53:39;8.85;;;2.78;;
54805;SDS011;62866;55.776;37.496;2022-10-13T02:56:05;3.15;;;1.77;;
54805;SDS011;62866;55.776;37.496;2022-10-13T02:58:32;5.78;;;2.83;;
54805;SDS011;62866;55.776;37.496;2022-10-13T03:01:07;4.78;;;2.30;;
54805;SDS011;62866;55.776;37.496;2022-10-13T03:03:35;4.90;;;2.10;;
54805;SDS011;62866;55.776;37.496;2022-10-13T03:06:01;6.43;;;2.55;;
54805;SDS011;62866;55.776;37.496;2022-10-13T03:08:26;4.13;;;2.35;;
54805;SDS011;62866;55.776;37.496;2022-10-13T03:10:52;8.45;;;2.53;;
54805;SDS011;62866;55.776;37.496;2022-10-13T03:13:18;10.18;;;2.50;;
54805;SDS011;62866;55.776;37.496;2022-10-13T03:15:44;4.25;;;2.42;;
54805;SDS011;62866;55.776;37.496;2022-10-13T03:18:10;4.90;;;2.55;;
54805;SDS011;62866;55.776;37.496;2022-10-13T03:20:35;5.10;;;2.40;;
54805;SDS011;62866;55.776;37.496;2022-10-13T03:23:01;6.85;;;2.20;;
54805;SDS011;62866;55.776;37.496;2022-10-13T03:25:27;5.82;;;2.22;;
54805;SDS011;62866;55.776;37.496;2022-10-13T03:27:53;5.38;;;2.20;;
54805;SDS011;62866;55.776;37.496;2022-10-13T03:30:19;3.85;;;2.03;;
54805;SDS011;62866;55.776;37.496;2022-10-13T03:32:45;6.68;;;2.60;;
54805;SDS011;62866;55.776;37.496;2022-10-13T03:35:10;4.68;;;2.40;;
54805;SDS011;62866;55.776;37.496;2022-10-13T03:37:36;6.28;;;2.35;;
54805;SDS011;62866;55.776;37.496;2022-10-13T03:40:02;6.78;;;2.55;;
54805;SDS011;62866;55.776;37.496;2022-10-13T03:42:28;6.40;;;2.83;;
54805;SDS011;62866;55.776;37.496;2022-10-13T03:44:53;3.70;;;2.30;;
54805;SDS011;62866;55.776;37.496;2022-10-13T03:47:19;5.25;;;2.35;;
54805;SDS011;62866;55.776;37.496;2022-10-13T03:49:44;5.22;;;2.72;;
54805;SDS011;62866;55.776;37.496;2022-10-13T03:52:10;4.07;;;2.38;;
54805;SDS011;62866;55.776;37.496;2022-10-13T03:54:35;4.97;;;2.28;;
54805;SDS011;62866;55.776;37.496;2022-10-13T03:57:01;3.78;;;2.20;;
54805;SDS011;62866;55.776;37.496;2022-10-13T03:59:26;4.32;;;2.25;;
54805;SDS011;62866;55.776;37.496;2022-10-13T04:01:53;5.63;;;2.00;;
54805;SDS011;62866;55.776;37.496;2022-10-13T04:04:19;5.65;;;2.67;;
54805;SDS011;62866;55.776;37.496;2022-10-13T04:06:44;4.00;;;2.47;;
54805;SDS011;62866;55.776;37.496;2022-10-13T04:09:10;5.45;;;2.63;;
54805;SDS011;62866;55.776;37.496;2022-10-13T04:11:36;4.07;;;2.10;;
54805;SDS011;62866;55.776;37.496;2022-10-13T04:14:01;6.47;;;2.70;;
54805;SDS011;62866;55.776;37.496;2022-10-13T04:16:28;4.00;;;2.40;;
54805;SDS011;62866;55.776;37.496;2022-10-13T04:18:59;5.88;;;2.50;;
54805;SDS011;62866;55.776;37.496;2022-10-13T04:21:27;5.60;;;2.33;;
54805;SDS011;62866;55.776;37.496;2022-10-13T04:23:54;6.05;;;2.22;;
54805;SDS011;62866;55.776;37.496;2022-10-13T04:26:24;5.28;;;2.88;;
54805;SDS011;62866;55.776;37.496;2022-10-13T04:28:52;4.97;;;2.78;;
54805;SDS011;62866;55.776;37.496;2022-10-13T04:31:18;6.68;;;3.03;;
54805;SDS011;62866;55.776;37.496;2022-10-13T04:33:48;6.95;;;2.72;;
54805;SDS011;62866;55.776;37.496;2022-10-13T04:36:14;6.70;;;3.00;;
54805;SDS011;62866;55.776;37.496;2022-10-13T04:38:42;7.35;;;3.05;;
54805;SDS011;62866;55.776;37.496;2022-10-13T04:41:08;6.82;;;4.18;;
54805;SDS011;62866;55.776;37.496;2022-10-13T04:43:35;7.45;;;3.88;;
54805;SDS011;62866;55.776;37.496;2022-10-13T04:46:01;8.80;;;4.90;;
54805;SDS011;62866;55.776;37.496;2022-10-13T04:48:41;8.05;;;4.60;;
54805;SDS011;62866;55.776;37.496;2022-10-13T04:51:08;7.85;;;3.40;;
54805;SDS011;62866;55.776;37.496;2022-10-13T04:53:35;7.53;;;4.40;;
54805;SDS011;62866;55.776;37.496;2022-10-13T04:56:02;7.90;;;4.70;;
54805;SDS011;62866;55.776;37.496;2022-10-13T04:58:30;8.82;;;4.60;;
54805;SDS011;62866;55.776;37.496;2022-10-13T05:00:55;5.85;;;3.58;;
54805;SDS011;62866;55.776;37.496;2022-10-13T05:03:21;7.57;;;4.07;;
54805;SDS011;62866;55.776;37.496;2022-10-13T05:05:48;7.82;;;4.03;;
54805;SDS011;62866;55.776;37.496;2022-10-13T05:08:13;7.05;;;3.35;;
54805;SDS011;62866;55.776;37.496;2022-10-13T05:10:39;6.63;;;3.58;;
54805;SDS011;62866;55.776;37.496;2022-10-13T05:13:04;6.97;;;3.70;;
54805;SDS011;62866;55.776;37.496;2022-10-13T05:15:30;7.05;;;3.78;;
54805;SDS011;62866;55.776;37.496;2022-10-13T05:17:57;7.35;;;3.83;;
54805;SDS011;62866;55.776;37.496;2022-10-13T05:20:23;6.75;;;3.33;;
54805;SDS011;62866;55.776;37.496;2022-10-13T05:22:49;6.38;;;3.08;;
54805;SDS011;62866;55.776;37.496;2022-10-13T05:25:15;6.70;;;2.42;;
54805;SDS011;62866;55.776;37.496;2022-10-13T05:27:41;6.90;;;3.55;;
54805;SDS011;62866;55.776;37.496;2022-10-13T05:30:06;6.50;;;3.20;;
54805;SDS011;62866;55.776;37.496;2022-10-13T05:32:33;3.47;;;2.17;;
54805;SDS011;62866;55.776;37.496;2022-10-13T05:34:59;5.95;;;2.90;;
54805;SDS011;62866;55.776;37.496;2022-10-13T05:37:25;4.18;;;2.53;;
54805;SDS011;62866;55.776;37.496;2022-10-13T05:39:50;6.13;;;3.25;;
54805;SDS011;62866;55.776;37.496;2022-10-13T05:42:16;8.13;;;3.50;;
54805;SDS011;62866;55.776;37.496;2022-10-13T05:44:42;6.65;;;4.18;;
54805;SDS011;62866;55.776;37.496;2022-10-13T05:47:07;7.25;;;4.28;;
54805;SDS011;62866;55.776;37.496;2022-10-13T05:49:33;8.32;;;4.07;;
54805;SDS011;62866;55.776;37.496;2022-10-13T05:52:01;6.97;;;3.08;;
54805;SDS011;62866;55.776;37.496;2022-10-13T05:54:46;4.90;;;3.25;;
54805;SDS011;62866;55.776;37.496;2022-10-13T05:57:15;4.82;;;2.83;;
54805;SDS011;62866;55.776;37.496;2022-10-13T05:59:54;4.75;;;2.40;;
54805;SDS011;62866;55.776;37.496;2022-10-13T06:02:25;4.00;;;2.40;;
54805;SDS011;62866;55.776;37.496;2022-10-13T06:04:58;5.28;;;2.70;;
54805;SDS011;62866;55.776;37.496;2022-10-13T06:07:23;5.43;;;2.90;;
54805;SDS011;62866;55.776;37.496;2022-10-13T06:09:49;3.75;;;2.33;;
54805;SDS011;62866;55.776;37.496;2022-10-13T06:12:14;5.00;;;2.55;;
54805;SDS011;62866;55.776;37.496;2022-10-13T06:14:40;4.00;;;2.05;;
54805;SDS011;62866;55.776;37.496;2022-10-13T06:17:06;4.13;;;2.50;;
54805;SDS011;62866;55.776;37.496;2022-10-13T06:19:32;6.90;;;3.40;;
54805;SDS011;62866;55.776;37.496;2022-10-13T06:21:57;3.45;;;1.70;;
54805;SDS011;62866;55.776;37.496;2022-10-13T06:24:23;7.25;;;2.45;;
54805;SDS011;62866;55.776;37.496;2022-10-13T06:26:48;7.35;;;2.50;;
54805;SDS011;62866;55.776;37.496;2022-10-13T06:29:14;3.17;;;2.20;;
54805;SDS011;62866;55.776;37.496;2022-10-13T06:31:39;2.97;;;1.80;;
54805;SDS011;62866;55.776;37.496;2022-10-13T06:34:05;5.15;;;2.85;;
54805;SDS011;62866;55.776;37.496;2022-10-13T06:36:31;4.78;;;2.80;;
54805;SDS011;62866;55.776;37.496;2022-10-13T06:38:57;5.03;;;2.08;;
54805;SDS011;62866;55.776;37.496;2022-10-13T06:41:22;3.28;;;1.85;;
54805;SDS011;62866;55.776;37.496;2022-10-13T06:43:48;3.83;;;1.75;;
54805;SDS011;62866;55.776;37.496;2022-10-13T06:46:13;4.45;;;2.05;;
54805;SDS011;62866;55.776;37.496;2022-10-13T06:48:39;4.18;;;2.20;;
54805;SDS011;62866;55.776;37.496;2022-10-13T06:51:05;4.05;;;2.45;;
54805;SDS011;62866;55.776;37.496;2022-10-13T06:53:33;4.53;;;2.50;;
54805;SDS011;62866;55.776;37.496;2022-10-13T06:55:59;3.70;;;2.47;;
54805;SDS011;62866;55.776;37.496;2022-10-13T06:58:26;6.30;;;2.55;;
54805;SDS011;62866;55.776;37.496;2022-10-13T07:00:51;3.30;;;2.10;;
54805;SDS011;62866;55.776;37.496;2022-10-13T07:03:17;2.80;;;1.70;;
54805;SDS011;62866;55.776;37.496;2022-10-13T07:05:43;5.47;;;2.20;;
54805;SDS011;62866;55.776;37.496;2022-10-13T07:08:09;5.30;;;2.20;;
54805;SDS011;62866;55.776;37.496;2022-10-13T07:10:36;3.67;;;1.70;;
54805;SDS011;62866;55.776;37.496;2022-10-13T07:13:02;3.20;;;2.03;;
54805;SDS011;62866;55.776;37.496;2022-10-13T07:15:28;2.67;;;1.77;;
54805;SDS011;62866;55.776;37.496;2022-10-13T07:17:53;3.83;;;1.98;;
54805;SDS011;62866;55.776;37.496;2022-10-13T07:20:20;4.57;;;2.20;;
54805;SDS011;62866;55.776;37.496;2022-10-13T07:22:46;3.45;;;1.98;;
54805;SDS011;62866;55.776;37.496;2022-10-13T07:25:12;2.75;;;1.63;;
54805;SDS011;62866;55.776;37.496;2022-10-13T07:27:38;4.80;;;1.60;;
54805;SDS011;62866;55.776;37.496;2022-10-13T07:30:05;3.95;;;2.00;;
54805;SDS011;62866;55.776;37.496;2022-10-13T07:32:31;2.75;;;1.67;;
54805;SDS011;62866;55.776;37.496;2022-10-13T07:34:57;2.60;;;1.67;;
54805;SDS011;62866;55.776;37.496;2022-10-13T07:37:23;1.88;;;1.58;;
54805;SDS011;62866;55.776;37.496;2022-10-13T07:39:50;3.63;;;2.38;;
54805;SDS011;62866;55.776;37.496;2022-10-13T07:42:15;2.78;;;1.83;;
54805;SDS011;62866;55.776;37.496;2022-10-13T07:44:41;3.50;;;2.10;;
54805;SDS011;62866;55.776;37.496;2022-10-13T07:47:07;4.32;;;2.15;;
54805;SDS011;62866;55.776;37.496;2022-10-13T07:49:32;3.65;;;2.03;;
54805;SDS011;62866;55.776;37.496;2022-10-13T07:51:58;4.63;;;2.28;;
54805;SDS011;62866;55.776;37.496;2022-10-13T07:54:23;3.00;;;2.47;;
54805;SDS011;62866;55.776;37.496;2022-10-13T07:56:50;6.22;;;2.38;;
54805;SDS011;62866;55.776;37.496;2022-10-13T07:59:16;7.50;;;2.60;;
54805;SDS011;62866;55.776;37.496;2022-10-13T08:01:42;2.88;;;1.88;;
54805;SDS011;62866;55.776;37.496;2022-10-13T08:04:08;3.05;;;1.80;;
54805;SDS011;62866;55.776;37.496;2022-10-13T08:06:33;4.75;;;1.73;;
54805;SDS011;62866;55.776;37.496;2022-10-13T08:08:59;3.20;;;2.00;;
54805;SDS011;62866;55.776;37.496;2022-10-13T08:11:25;3.15;;;1.52;;
54805;SDS011;62866;55.776;37.496;2022-10-13T08:13:51;2.70;;;1.67;;
54805;SDS011;62866;55.776;37.496;2022-10-13T08:16:18;3.28;;;2.00;;
54805;SDS011;62866;55.776;37.496;2022-10-13T08:18:44;2.47;;;1.30;;
54805;SDS011;62866;55.776;37.496;2022-10-13T08:21:14;2.50;;;1.42;;
54805;SDS011;62866;55.776;37.496;2022-10-13T08:23:43;3.00;;;1.30;;
54805;SDS011;62866;55.776;37.496;2022-10-13T08:26:20;2.30;;;1.20;;
54805;SDS011;62866;55.776;37.496;2022-10-13T08:28:48;3.05;;;1.42;;
54805;SDS011;62866;55.776;37.496;2022-10-13T08:31:14;2.22;;;1.45;;
54805;SDS011;62866;55.776;37.496;2022-10-13T08:33:40;1.98;;;1.00;;
54805;SDS011;62866;55.776;37.496;2022-10-13T08:36:06;2.58;;;1.15;;
54805;SDS011;62866;55.776;37.496;2022-10-13T08:38:32;3.03;;;1.80;;
54805;SDS011;62866;55.776;37.496;2022-10-13T08:40:58;2.80;;;1.40;;
54805;SDS011;62866;55.776;37.496;2022-10-13T08:43:24;1.85;;;1.17;;
54805;SDS011;62866;55.776;37.496;2022-10-13T08:45:52;3.67;;;1.48;;
54805;SDS011;62866;55.776;37.496;2022-10-13T08:48:32;4.35;;;1.50;;
54805;SDS011;62866;55.776;37.496;2022-10-13T08:51:01;1.80;;;1.08;;
54805;SDS011;62866;55.776;37.496;2022-10-13T08:56:13;3.30;;;1.50;;
54805;SDS011;62866;55.776;37.496;2022-10-13T08:58:43;2.05;;;1.45;;
54805;SDS011;62866;55.776;37.496;2022-10-13T09:08:59;1.20;;;1.00;;
54805;SDS011;62866;55.776;37.496;2022-10-13T09:11:30;2.17;;;1.33;;
54805;SDS011;62866;55.776;37.496;2022-10-13T09:13:58;1.95;;;1.30;;
54805;SDS011;62866;55.776;37.496;2022-10-13T09:16:29;2.10;;;1.40;;
54805;SDS011;62866;55.776;37.496;2022-10-13T09:19:00;1.77;;;1.30;;
54805;SDS011;62866;55.776;37.496;2022-10-13T09:21:48;2.50;;;1.23;;
54805;SDS011;62866;55.776;37.496;2022-10-13T09:24:16;1.27;;;0.98;;
54805;SDS011;62866;55.776;37.496;2022-10-13T09:26:45;2.38;;;1.20;;
54805;SDS011;62866;55.776;37.496;2022-10-13T09:29:19;2.90;;;1.25;;
54805;SDS011;62866;55.776;37.496;2022-10-13T09:31:49;1.90;;;1.10;;
54805;SDS011;62866;55.776;37.496;2022-10-13T09:39:21;1.50;;;1.13;;
54805;SDS011;62866;55.776;37.496;2022-10-13T09:41:46;1.40;;;1.00;;
54805;SDS011;62866;55.776;37.496;2022-10-13T09:44:13;3.58;;;1.48;;
54805;SDS011;62866;55.776;37.496;2022-10-13T09:46:56;2.53;;;1.23;;
54805;SDS011;62866;55.776;37.496;2022-10-13T09:49:42;2.90;;;1.20;;
54805;SDS011;62866;55.776;37.496;2022-10-13T10:02:37;2.33;;;1.40;;
54805;SDS011;62866;55.776;37.496;2022-10-13T10:05:17;2.10;;;1.02;;
54805;SDS011;62866;55.776;37.496;2022-10-13T10:07:46;1.63;;;1.10;;
54805;SDS011;62866;55.776;37.496;2022-10-13T10:10:17;1.92;;;1.67;;
54805;SDS011;62866;55.776;37.496;2022-10-13T10:12:52;2.25;;;1.45;;
54805;SDS011;62866;55.776;37.496;2022-10-13T10:15:23;3.00;;;1.58;;
54805;SDS011;62866;55.776;37.496;2022-10-13T10:18:17;1.65;;;1.27;;
54805;SDS011;62866;55.776;37.496;2022-10-13T10:21:11;1.70;;;1.30;;
54805;SDS011;62866;55.776;37.496;2022-10-13T10:23:42;2.65;;;1.45;;
54805;SDS011;62866;55.776;37.496;2022-10-13T10:26:43;4.38;;;1.80;;
54805;SDS011;62866;55.776;37.496;2022-10-13T10:37:52;3.58;;;1.92;;
54805;SDS011;62866;55.776;37.496;2022-10-13T10:43:29;2.30;;;1.45;;
54805;SDS011;62866;55.776;37.496;2022-10-13T10:46:03;1.48;;;1.27;;
54805;SDS011;62866;55.776;37.496;2022-10-13T10:48:37;2.80;;;1.73;;
54805;SDS011;62866;55.776;37.496;2022-10-13T10:51:07;2.65;;;1.63;;
54805;SDS011;62866;55.776;37.496;2022-10-13T10:53:40;1.67;;;1.17;;
54805;SDS011;62866;55.776;37.496;2022-10-13T11:04:38;2.35;;;1.30;;
54805;SDS011;62866;55.776;37.496;2022-10-13T11:14:47;3.30;;;1.90;;
54805;SDS011;62866;55.776;37.496;2022-10-13T11:17:36;1.40;;;1.17;;
54805;SDS011;62866;55.776;37.496;2022-10-13T11:22:41;1.98;;;1.35;;
54805;SDS011;62866;55.776;37.496;2022-10-13T11:25:34;1.63;;;1.48;;
54805;SDS011;62866;55.776;37.496;2022-10-13T11:27:59;3.30;;;1.90;;
54805;SDS011;62866;55.776;37.496;2022-10-13T11:30:48;3.00;;;1.83;;
54805;SDS011;62866;55.776;37.496;2022-10-13T11:44:57;2.83;;;1.52;;
54805;SDS011;62866;55.776;37.496;2022-10-13T11:55:55;2.00;;;1.08;;
54805;SDS011;62866;55.776;37.496;2022-10-13T11:58:23;2.65;;;1.50;;
54805;SDS011;62866;55.776;37.496;2022-10-13T12:01:04;2.78;;;1.85;;
54805;SDS011;62866;55.776;37.496;2022-10-13T12:03:36;3.38;;;1.92;;
54805;SDS011;62866;55.776;37.496;2022-10-13T12:08:49;1.77;;;1.17;;
54805;SDS011;62866;55.776;37.496;2022-10-13T12:11:27;1.95;;;1.38;;
54805;SDS011;62866;55.776;37.496;2022-10-13T12:13:54;1.58;;;1.20;;
54805;SDS011;62866;55.776;37.496;2022-10-13T12:16:20;3.22;;;1.35;;
54805;SDS011;62866;55.776;37.496;2022-10-13T12:18:46;3.22;;;1.50;;
54805;SDS011;62866;55.776;37.496;2022-10-13T12:21:17;1.73;;;1.42;;
54805;SDS011;62866;55.776;37.496;2022-10-13T12:23:45;2.38;;;1.60;;
54805;SDS011;62866;55.776;37.496;2022-10-13T12:26:13;2.03;;;1.50;;
54805;SDS011;62866;55.776;37.496;2022-10-13T12:31:26;2.42;;;1.48;;
54805;SDS011;62866;55.776;37.496;2022-10-13T12:33:55;2.42;;;1.65;;
54805;SDS011;62866;55.776;37.496;2022-10-13T12:36:29;3.50;;;1.80;;
54805;SDS011;62866;55.776;37.496;2022-10-13T12:39:10;1.88;;;1.40;;
54805;SDS011;62866;55.776;37.496;2022-10-13T12:41:40;2.40;;;1.15;;
54805;SDS011;62866;55.776;37.496;2022-10-13T12:44:18;2.50;;;1.60;;
54805;SDS011;62866;55.776;37.496;2022-10-13T12:46:47;1.90;;;1.13;;
54805;SDS011;62866;55.776;37.496;2022-10-13T12:49:20;3.35;;;1.50;;
54805;SDS011;62866;55.776;37.496;2022-10-13T12:51:51;1.85;;;1.23;;
54805;SDS011;62866;55.776;37.496;2022-10-13T12:54:24;2.35;;;1.30;;
54805;SDS011;62866;55.776;37.496;2022-10-13T12:56:54;2.63;;;1.80;;
54805;SDS011;62866;55.776;37.496;2022-10-13T12:59:21;2.50;;;1.50;;
54805;SDS011;62866;55.776;37.496;2022-10-13T13:01:51;2.80;;;1.52;;
54805;SDS011;62866;55.776;37.496;2022-10-13T13:06:52;13.50;;;5.47;;
54805;SDS011;62866;55.776;37.496;2022-10-13T13:09:24;5.43;;;2.55;;
54805;SDS011;62866;55.776;37.496;2022-10-13T13:14:44;1.38;;;1.00;;
54805;SDS011;62866;55.776;37.496;2022-10-13T13:19:43;1.90;;;0.98;;
54805;SDS011;62866;55.776;37.496;2022-10-13T13:22:13;0.95;;;0.60;;
54805;SDS011;62866;55.776;37.496;2022-10-13T13:24:40;1.73;;;1.20;;
54805;SDS011;62866;55.776;37.496;2022-10-13T13:27:10;0.93;;;0.90;;
54805;SDS011;62866;55.776;37.496;2022-10-13T13:29:39;1.58;;;1.00;;
54805;SDS011;62866;55.776;37.496;2022-10-13T13:32:05;1.10;;;0.90;;
54805;SDS011;62866;55.776;37.496;2022-10-13T13:34:33;2.00;;;1.10;;
54805;SDS011;62866;55.776;37.496;2022-10-13T13:36:59;4.28;;;1.30;;
54805;SDS011;62866;55.776;37.496;2022-10-13T13:39:26;1.65;;;1.05;;
54805;SDS011;62866;55.776;37.496;2022-10-13T13:41:52;3.38;;;1.30;;
54805;SDS011;62866;55.776;37.496;2022-10-13T13:44:17;3.55;;;1.80;;
54805;SDS011;62866;55.776;37.496;2022-10-13T13:46:43;2.67;;;1.42;;
54805;SDS011;62866;55.776;37.496;2022-10-13T13:49:09;4.20;;;1.73;;
54805;SDS011;62866;55.776;37.496;2022-10-13T13:51:42;5.15;;;2.08;;
54805;SDS011;62866;55.776;37.496;2022-10-13T13:54:07;1.85;;;1.50;;
54805;SDS011;62866;55.776;37.496;2022-10-13T13:56:33;2.20;;;1.42;;
54805;SDS011;62866;55.776;37.496;2022-10-13T13:58:58;2.88;;;1.40;;
54805;SDS011;62866;55.776;37.496;2022-10-13T14:01:24;3.83;;;1.83;;
54805;SDS011;62866;55.776;37.496;2022-10-13T14:03:49;4.90;;;1.83;;
54805;SDS011;62866;55.776;37.496;2022-10-13T14:06:16;4.05;;;1.90;;
54805;SDS011;62866;55.776;37.496;2022-10-13T14:08:43;4.40;;;1.58;;
54805;SDS011;62866;55.776;37.496;2022-10-13T14:11:08;3.28;;;1.92;;
54805;SDS011;62866;55.776;37.496;2022-10-13T14:13:34;3.83;;;2.10;;
54805;SDS011;62866;55.776;37.496;2022-10-13T14:16:00;2.20;;;1.33;;
54805;SDS011;62866;55.776;37.496;2022-10-13T14:18:27;4.28;;;1.50;;
54805;SDS011;62866;55.776;37.496;2022-10-13T14:20:53;3.17;;;1.70;;
54805;SDS011;62866;55.776;37.496;2022-10-13T14:23:19;3.97;;;1.70;;
54805;SDS011;62866;55.776;37.496;2022-10-13T14:25:44;4.18;;;1.80;;
54805;SDS011;62866;55.776;37.496;2022-10-13T14:28:10;2.25;;;1.65;;
54805;SDS011;62866;55.776;37.496;2022-10-13T14:30:39;2.63;;;1.58;;
54805;SDS011;62866;55.776;37.496;2022-10-13T14:33:05;7.28;;;2.20;;
54805;SDS011;62866;55.776;37.496;2022-10-13T14:35:31;2.20;;;1.48;;
54805;SDS011;62866;55.776;37.496;2022-10-13T14:37:56;2.22;;;1.40;;
54805;SDS011;62866;55.776;37.496;2022-10-13T14:40:22;2.65;;;1.88;;
54805;SDS011;62866;55.776;37.496;2022-10-13T14:42:47;4.35;;;1.77;;
54805;SDS011;62866;55.776;37.496;2022-10-13T14:45:13;2.90;;;1.80;;
54805;SDS011;62866;55.776;37.496;2022-10-13T14:47:39;3.05;;;1.70;;
54805;SDS011;62866;55.776;37.496;2022-10-13T14:50:05;4.00;;;1.35;;
54805;SDS011;62866;55.776;37.496;2022-10-13T14:52:31;2.53;;;1.77;;
54805;SDS011;62866;55.776;37.496;2022-10-13T14:54:57;3.78;;;1.58;;
54805;SDS011;62866;55.776;37.496;2022-10-13T14:57:22;2.25;;;1.05;;
54805;SDS011;62866;55.776;37.496;2022-10-13T14:59:48;3.42;;;2.15;;
54805;SDS011;62866;55.776;37.496;2022-10-13T15:02:13;4.10;;;1.63;;
54805;SDS011;62866;55.776;37.496;2022-10-13T15:04:39;1.83;;;1.42;;
54805;SDS011;62866;55.776;37.496;2022-10-13T15:07:06;4.93;;;1.92;;
54805;SDS011;62866;55.776;37.496;2022-10-13T15:09:32;2.47;;;1.60;;
54805;SDS011;62866;55.776;37.496;2022-10-13T15:11:57;1.73;;;1.17;;
54805;SDS011;62866;55.776;37.496;2022-10-13T15:14:23;2.25;;;1.48;;
54805;SDS011;62866;55.776;37.496;2022-10-13T15:16:49;2.33;;;1.58;;
54805;SDS011;62866;55.776;37.496;2022-10-13T15:19:14;2.60;;;1.65;;
54805;SDS011;62866;55.776;37.496;2022-10-13T15:21:40;5.55;;;2.33;;
54805;SDS011;62866;55.776;37.496;2022-10-13T15:24:05;3.28;;;1.83;;
54805;SDS011;62866;55.776;37.496;2022-10-13T15:26:32;5.18;;;1.52;;
54805;SDS011;62866;55.776;37.496;2022-10-13T15:28:57;4.93;;;1.90;;
54805;SDS011;62866;55.776;37.496;2022-10-13T15:31:23;2.58;;;1.40;;
54805;SDS011;62866;55.776;37.496;2022-10-13T15:33:52;3.95;;;1.52;;
54805;SDS011;62866;55.776;37.496;2022-10-13T15:36:19;2.75;;;1.80;;
54805;SDS011;62866;55.776;37.496;2022-10-13T15:38:45;3.72;;;1.48;;
54805;SDS011;62866;55.776;37.496;2022-10-13T15:41:11;3.97;;;1.60;;
54805;SDS011;62866;55.776;37.496;2022-10-13T15:43:37;4.00;;;1.80;;
54805;SDS011;62866;55.776;37.496;2022-10-13T15:46:07;4.35;;;1.75;;
54805;SDS011;62866;55.776;37.496;2022-10-13T15:48:35;5.40;;;2.22;;
54805;SDS011;62866;55.776;37.496;2022-10-13T15:51:01;2.65;;;1.80;;
54805;SDS011;62866;55.776;37.496;2022-10-13T15:53:34;4.78;;;2.00;;
54805;SDS011;62866;55.776;37.496;2022-10-13T15:56:00;2.80;;;1.83;;
54805;SDS011;62866;55.776;37.496;2022-10-13T15:58:26;6.25;;;2.33;;
54805;SDS011;62866;55.776;37.496;2022-10-13T16:00:52;2.60;;;1.60;;
54805;SDS011;62866;55.776;37.496;2022-10-13T16:03:17;3.20;;;1.92;;
54805;SDS011;62866;55.776;37.496;2022-10-13T16:05:43;2.75;;;1.63;;
54805;SDS011;62866;55.776;37.496;2022-10-13T16:08:10;4.07;;;2.05;;
54805;SDS011;62866;55.776;37.496;2022-10-13T16:10:39;2.95;;;1.98;;
54805;SDS011;62866;55.776;37.496;2022-10-13T16:13:07;3.75;;;2.13;;
54805;SDS011;62866;55.776;37.496;2022-10-13T16:15:33;7.05;;;2.20;;
54805;SDS011;62866;55.776;37.496;2022-10-13T16:17:59;3.70;;;2.00;;
54805;SDS011;62866;55.776;37.496;2022-10-13T16:20:25;5.10;;;2.00;;
54805;SDS011;62866;55.776;37.496;2022-10-13T16:22:51;5.10;;;2.20;;
54805;SDS011;62866;55.776;37.496;2022-10-13T16:25:17;6.35;;;2.33;;
54805;SDS011;62866;55.776;37.496;2022-10-13T16:27:43;5.22;;;2.45;;
54805;SDS011;62866;55.776;37.496;2022-10-13T16:30:09;4.00;;;2.38;;
54805;SDS011;62866;55.776;37.496;2022-10-13T16:32:36;4.50;;;2.25;;
54805;SDS011;62866;55.776;37.496;2022-10-13T16:35:05;3.92;;;2.30;;
54805;SDS011;62866;55.776;37.496;2022-10-13T16:37:31;4.05;;;2.42;;
54805;SDS011;62866;55.776;37.496;2022-10-13T16:39:57;4.25;;;2.33;;